McAdoo, Texas
Current Conditions -  °F | °C
As of 2:53 AM on Thursday 23 Oct 2014 (Local Time) from KLBB Reporting Station
Haze Haze  
Wind Chill: 55°   Ceiling: Unl
Heat Index: 55°   Visibility: 5mi
Dew Point: 53°   Wind: 6mph
Humidity: 93%   Direction: 180°S
Pressure: 30.14"   Gusts: NA
Location:  33.73°N, 101.01°W
Report Text: KLBB 230753Z 18005KT 5SM BR CLR 13/12 A3014 RMK AO2 SLP174 SKY PTLY OBSCD T01280117 $
Loading
Personal Weather Stations






























Interactive Weather Map New forecast layout! Learn more

10-Day Weather Forecast

Advertisements
Track Severe Weather on mobile